La Belle, Florida
Current Conditions -  °F | °C
As of 11:35 AM on Saturday 20 Dec 2014 (Local Time) from KIMM Reporting Station
Scattered Clouds Scattered Clouds  
Wind Chill: 81°   Ceiling: Unl
Heat Index: 82°   Visibility: 8mi
Dew Point: 64°   Wind: 8mph
Humidity: 58%   Direction: 120°ESE
Pressure: 30.12"   Gusts: NA
Location:  26.76°N, 81.44°W
Report Text: KIMM 201635Z AUTO 12007KT 8SM SCT032 27/18 A3012 RMK A01 P000
Loading
Personal Weather Stations






























Interactive Weather Map New forecast layout! Learn more

10-Day Weather Forecast

Advertisements
Track Severe Weather on mobile